Port Acres, Texas
Current Conditions -  °F | °C
As of 4:53 PM on Tuesday 27 Jan 2015 (Local Time) from KBPT Reporting Station
Clear Clear  
Wind Chill: 24°   Ceiling: Unl
Heat Index: 24°   Visibility: 10mi
Dew Point:   Wind: 6mph
Humidity: 33%   Direction: 150°SSE
Pressure: 30.1"   Gusts: NA
Location:  29.7569°N, 94.1898°W
Report Text: KBPT 272253Z 15005KT 10SM CLR 24/07 A3010 RMK AO2 SLP192 T02390067
Loading
Personal Weather Stations






























Interactive Weather Map New forecast layout! Learn more

10-Day Weather Forecast

Advertisements
Track Severe Weather on mobile